sensor_id;sensor_type;location;lat;lon;timestamp;P1;durP1;ratioP1;P2;durP2;ratioP2
36189;SDS011;22232;50.914;13.858;2023-07-09T00:01:58;3.90;;;3.30;;
36189;SDS011;22232;50.914;13.858;2023-07-09T00:04:26;5.95;;;3.42;;
36189;SDS011;22232;50.914;13.858;2023-07-09T00:06:56;4.57;;;3.42;;
36189;SDS011;22232;50.914;13.858;2023-07-09T00:09:27;5.22;;;3.53;;
36189;SDS011;22232;50.914;13.858;2023-07-09T00:11:55;5.68;;;3.65;;
36189;SDS011;22232;50.914;13.858;2023-07-09T00:14:23;4.63;;;3.35;;
36189;SDS011;22232;50.914;13.858;2023-07-09T00:16:50;4.93;;;3.72;;
36189;SDS011;22232;50.914;13.858;2023-07-09T00:19:20;4.13;;;3.00;;
36189;SDS011;22232;50.914;13.858;2023-07-09T00:21:51;5.35;;;3.10;;
36189;SDS011;22232;50.914;13.858;2023-07-09T00:24:22;4.75;;;3.08;;
36189;SDS011;22232;50.914;13.858;2023-07-09T00:26:49;3.60;;;2.90;;
36189;SDS011;22232;50.914;13.858;2023-07-09T00:29:18;5.47;;;3.10;;
36189;SDS011;22232;50.914;13.858;2023-07-09T00:31:45;5.20;;;3.38;;
36189;SDS011;22232;50.914;13.858;2023-07-09T00:34:14;5.15;;;3.63;;
36189;SDS011;22232;50.914;13.858;2023-07-09T00:36:45;3.58;;;3.25;;
36189;SDS011;22232;50.914;13.858;2023-07-09T00:39:16;4.65;;;3.47;;
36189;SDS011;22232;50.914;13.858;2023-07-09T00:41:45;5.97;;;3.60;;
36189;SDS011;22232;50.914;13.858;2023-07-09T00:49:36;4.75;;;3.70;;
36189;SDS011;22232;50.914;13.858;2023-07-09T00:54:46;5.88;;;3.65;;
36189;SDS011;22232;50.914;13.858;2023-07-09T00:57:15;5.50;;;3.85;;
36189;SDS011;22232;50.914;13.858;2023-07-09T00:59:49;5.38;;;3.78;;
36189;SDS011;22232;50.914;13.858;2023-07-09T01:02:21;5.45;;;3.40;;
36189;SDS011;22232;50.914;13.858;2023-07-09T01:04:51;4.47;;;3.00;;
36189;SDS011;22232;50.914;13.858;2023-07-09T01:07:21;3.65;;;3.13;;
36189;SDS011;22232;50.914;13.858;2023-07-09T01:09:49;5.88;;;3.25;;
36189;SDS011;22232;50.914;13.858;2023-07-09T01:12:17;6.00;;;3.75;;
36189;SDS011;22232;50.914;13.858;2023-07-09T01:14:48;4.45;;;3.40;;
36189;SDS011;22232;50.914;13.858;2023-07-09T01:17:19;4.13;;;2.97;;
36189;SDS011;22232;50.914;13.858;2023-07-09T01:19:49;4.00;;;2.90;;
36189;SDS011;22232;50.914;13.858;2023-07-09T01:22:18;4.68;;;3.63;;
36189;SDS011;22232;50.914;13.858;2023-07-09T01:24:57;6.25;;;3.70;;
36189;SDS011;22232;50.914;13.858;2023-07-09T01:27:36;4.88;;;3.20;;
36189;SDS011;22232;50.914;13.858;2023-07-09T01:30:09;4.68;;;3.72;;
36189;SDS011;22232;50.914;13.858;2023-07-09T01:32:42;6.15;;;3.55;;
36189;SDS011;22232;50.914;13.858;2023-07-09T01:35:13;4.70;;;3.10;;
36189;SDS011;22232;50.914;13.858;2023-07-09T01:37:42;4.32;;;3.03;;
36189;SDS011;22232;50.914;13.858;2023-07-09T01:40:11;5.10;;;3.35;;
36189;SDS011;22232;50.914;13.858;2023-07-09T01:42:57;4.47;;;2.88;;
36189;SDS011;22232;50.914;13.858;2023-07-09T01:45:28;8.00;;;3.85;;
36189;SDS011;22232;50.914;13.858;2023-07-09T01:47:56;4.80;;;3.20;;
36189;SDS011;22232;50.914;13.858;2023-07-09T01:50:24;3.50;;;3.20;;
36189;SDS011;22232;50.914;13.858;2023-07-09T01:52:56;5.10;;;3.15;;
36189;SDS011;22232;50.914;13.858;2023-07-09T01:55:25;4.57;;;3.40;;
36189;SDS011;22232;50.914;13.858;2023-07-09T01:57:53;4.95;;;3.30;;
36189;SDS011;22232;50.914;13.858;2023-07-09T02:00:21;4.05;;;3.35;;
36189;SDS011;22232;50.914;13.858;2023-07-09T02:02:49;5.63;;;3.25;;
36189;SDS011;22232;50.914;13.858;2023-07-09T02:05:18;5.65;;;3.40;;
36189;SDS011;22232;50.914;13.858;2023-07-09T02:07:47;5.32;;;3.88;;
36189;SDS011;22232;50.914;13.858;2023-07-09T02:10:16;4.85;;;3.65;;
36189;SDS011;22232;50.914;13.858;2023-07-09T02:12:44;6.00;;;3.85;;
36189;SDS011;22232;50.914;13.858;2023-07-09T02:15:13;4.32;;;3.30;;
36189;SDS011;22232;50.914;13.858;2023-07-09T02:17:41;5.78;;;3.40;;
36189;SDS011;22232;50.914;13.858;2023-07-09T02:20:09;5.93;;;3.22;;
36189;SDS011;22232;50.914;13.858;2023-07-09T02:22:37;6.97;;;3.50;;
36189;SDS011;22232;50.914;13.858;2023-07-09T02:25:06;4.82;;;3.35;;
36189;SDS011;22232;50.914;13.858;2023-07-09T02:27:35;4.90;;;3.33;;
36189;SDS011;22232;50.914;13.858;2023-07-09T02:30:04;5.10;;;3.40;;
36189;SDS011;22232;50.914;13.858;2023-07-09T02:32:33;3.88;;;3.20;;
36189;SDS011;22232;50.914;13.858;2023-07-09T02:35:01;4.70;;;3.30;;
36189;SDS011;22232;50.914;13.858;2023-07-09T02:37:29;4.28;;;3.22;;
36189;SDS011;22232;50.914;13.858;2023-07-09T02:39:56;6.35;;;3.10;;
36189;SDS011;22232;50.914;13.858;2023-07-09T02:42:24;4.43;;;3.15;;
36189;SDS011;22232;50.914;13.858;2023-07-09T02:44:51;4.10;;;3.33;;
36189;SDS011;22232;50.914;13.858;2023-07-09T02:47:21;5.82;;;3.25;;
36189;SDS011;22232;50.914;13.858;2023-07-09T02:49:49;5.28;;;3.25;;
36189;SDS011;22232;50.914;13.858;2023-07-09T02:52:17;6.30;;;3.85;;
36189;SDS011;22232;50.914;13.858;2023-07-09T02:54:45;4.68;;;3.45;;
36189;SDS011;22232;50.914;13.858;2023-07-09T02:57:12;4.93;;;3.30;;
36189;SDS011;22232;50.914;13.858;2023-07-09T02:59:40;4.95;;;3.53;;
36189;SDS011;22232;50.914;13.858;2023-07-09T03:02:09;4.25;;;3.50;;
36189;SDS011;22232;50.914;13.858;2023-07-09T03:04:37;8.38;;;3.70;;
36189;SDS011;22232;50.914;13.858;2023-07-09T03:07:05;4.93;;;3.35;;
36189;SDS011;22232;50.914;13.858;2023-07-09T03:09:32;5.35;;;3.72;;
36189;SDS011;22232;50.914;13.858;2023-07-09T03:12:00;4.88;;;3.70;;
36189;SDS011;22232;50.914;13.858;2023-07-09T03:14:28;4.65;;;3.15;;
36189;SDS011;22232;50.914;13.858;2023-07-09T03:16:55;4.32;;;3.53;;
36189;SDS011;22232;50.914;13.858;2023-07-09T03:19:23;5.15;;;3.78;;
36189;SDS011;22232;50.914;13.858;2023-07-09T03:21:51;4.40;;;3.50;;
36189;SDS011;22232;50.914;13.858;2023-07-09T03:24:18;4.00;;;3.30;;
36189;SDS011;22232;50.914;13.858;2023-07-09T03:26:47;4.70;;;3.60;;
36189;SDS011;22232;50.914;13.858;2023-07-09T03:29:15;4.88;;;3.50;;
36189;SDS011;22232;50.914;13.858;2023-07-09T03:31:43;3.92;;;3.47;;
36189;SDS011;22232;50.914;13.858;2023-07-09T03:34:11;6.78;;;3.53;;
36189;SDS011;22232;50.914;13.858;2023-07-09T03:36:40;5.68;;;3.53;;
36189;SDS011;22232;50.914;13.858;2023-07-09T03:39:08;5.03;;;3.17;;
36189;SDS011;22232;50.914;13.858;2023-07-09T03:41:36;5.05;;;3.58;;
36189;SDS011;22232;50.914;13.858;2023-07-09T03:44:03;4.38;;;3.42;;
36189;SDS011;22232;50.914;13.858;2023-07-09T03:46:31;6.07;;;3.95;;
36189;SDS011;22232;50.914;13.858;2023-07-09T03:48:59;6.82;;;3.53;;
36189;SDS011;22232;50.914;13.858;2023-07-09T03:51:27;3.85;;;3.13;;
36189;SDS011;22232;50.914;13.858;2023-07-09T03:53:55;6.32;;;3.53;;
36189;SDS011;22232;50.914;13.858;2023-07-09T03:56:22;3.80;;;3.10;;
36189;SDS011;22232;50.914;13.858;2023-07-09T03:58:50;4.18;;;3.40;;
36189;SDS011;22232;50.914;13.858;2023-07-09T04:01:18;4.95;;;3.50;;
36189;SDS011;22232;50.914;13.858;2023-07-09T04:03:45;4.72;;;3.67;;
36189;SDS011;22232;50.914;13.858;2023-07-09T04:06:13;4.63;;;3.38;;
36189;SDS011;22232;50.914;13.858;2023-07-09T04:08:41;4.10;;;2.55;;
36189;SDS011;22232;50.914;13.858;2023-07-09T04:11:09;4.47;;;3.10;;
36189;SDS011;22232;50.914;13.858;2023-07-09T04:13:36;4.38;;;3.13;;
36189;SDS011;22232;50.914;13.858;2023-07-09T04:16:04;6.25;;;3.55;;
36189;SDS011;22232;50.914;13.858;2023-07-09T04:18:33;3.90;;;3.38;;
36189;SDS011;22232;50.914;13.858;2023-07-09T04:21:00;4.55;;;3.38;;
36189;SDS011;22232;50.914;13.858;2023-07-09T04:23:28;3.70;;;2.95;;
36189;SDS011;22232;50.914;13.858;2023-07-09T04:25:55;4.20;;;3.03;;
36189;SDS011;22232;50.914;13.858;2023-07-09T04:28:24;4.25;;;3.05;;
36189;SDS011;22232;50.914;13.858;2023-07-09T04:30:52;3.70;;;2.78;;
36189;SDS011;22232;50.914;13.858;2023-07-09T04:33:20;3.67;;;2.90;;
36189;SDS011;22232;50.914;13.858;2023-07-09T04:35:50;4.90;;;3.25;;
36189;SDS011;22232;50.914;13.858;2023-07-09T04:38:17;4.75;;;3.03;;
36189;SDS011;22232;50.914;13.858;2023-07-09T04:40:46;4.03;;;3.50;;
36189;SDS011;22232;50.914;13.858;2023-07-09T04:43:14;3.78;;;3.20;;
36189;SDS011;22232;50.914;13.858;2023-07-09T04:45:41;3.22;;;2.92;;
36189;SDS011;22232;50.914;13.858;2023-07-09T04:48:09;4.38;;;3.00;;
36189;SDS011;22232;50.914;13.858;2023-07-09T04:50:37;5.10;;;3.25;;
36189;SDS011;22232;50.914;13.858;2023-07-09T04:53:04;3.67;;;2.85;;
36189;SDS011;22232;50.914;13.858;2023-07-09T04:55:32;4.70;;;3.13;;
36189;SDS011;22232;50.914;13.858;2023-07-09T04:58:00;3.88;;;3.08;;
36189;SDS011;22232;50.914;13.858;2023-07-09T05:00:27;6.40;;;3.10;;
36189;SDS011;22232;50.914;13.858;2023-07-09T05:02:55;4.13;;;3.15;;
36189;SDS011;22232;50.914;13.858;2023-07-09T05:05:23;5.88;;;3.78;;
36189;SDS011;22232;50.914;13.858;2023-07-09T05:07:50;3.63;;;2.92;;
36189;SDS011;22232;50.914;13.858;2023-07-09T05:10:18;5.43;;;3.22;;
36189;SDS011;22232;50.914;13.858;2023-07-09T05:12:49;3.53;;;3.00;;
36189;SDS011;22232;50.914;13.858;2023-07-09T05:15:19;4.53;;;2.92;;
36189;SDS011;22232;50.914;13.858;2023-07-09T05:17:47;5.75;;;3.60;;
36189;SDS011;22232;50.914;13.858;2023-07-09T05:20:15;3.38;;;3.00;;
36189;SDS011;22232;50.914;13.858;2023-07-09T05:22:43;4.13;;;3.13;;
36189;SDS011;22232;50.914;13.858;2023-07-09T05:25:11;3.35;;;3.03;;
36189;SDS011;22232;50.914;13.858;2023-07-09T05:27:39;5.15;;;3.17;;
36189;SDS011;22232;50.914;13.858;2023-07-09T05:30:06;4.50;;;3.10;;
36189;SDS011;22232;50.914;13.858;2023-07-09T05:32:35;6.57;;;3.05;;
36189;SDS011;22232;50.914;13.858;2023-07-09T05:35:04;4.60;;;3.17;;
36189;SDS011;22232;50.914;13.858;2023-07-09T05:37:33;3.55;;;2.97;;
36189;SDS011;22232;50.914;13.858;2023-07-09T05:40:00;4.22;;;3.10;;
36189;SDS011;22232;50.914;13.858;2023-07-09T05:42:28;3.80;;;3.17;;
36189;SDS011;22232;50.914;13.858;2023-07-09T05:44:55;4.15;;;3.13;;
36189;SDS011;22232;50.914;13.858;2023-07-09T05:47:23;4.45;;;3.17;;
36189;SDS011;22232;50.914;13.858;2023-07-09T05:49:51;7.40;;;2.95;;
36189;SDS011;22232;50.914;13.858;2023-07-09T05:52:20;4.15;;;3.22;;
36189;SDS011;22232;50.914;13.858;2023-07-09T05:54:50;5.25;;;2.90;;
36189;SDS011;22232;50.914;13.858;2023-07-09T05:57:18;3.90;;;3.33;;
36189;SDS011;22232;50.914;13.858;2023-07-09T05:59:46;5.30;;;3.55;;
36189;SDS011;22232;50.914;13.858;2023-07-09T06:02:15;3.83;;;3.08;;
36189;SDS011;22232;50.914;13.858;2023-07-09T06:04:45;4.35;;;3.28;;
36189;SDS011;22232;50.914;13.858;2023-07-09T06:07:13;5.47;;;3.30;;
36189;SDS011;22232;50.914;13.858;2023-07-09T06:09:41;6.95;;;3.28;;
36189;SDS011;22232;50.914;13.858;2023-07-09T06:12:09;4.13;;;3.03;;
36189;SDS011;22232;50.914;13.858;2023-07-09T06:14:36;5.95;;;3.70;;
36189;SDS011;22232;50.914;13.858;2023-07-09T06:17:04;4.45;;;3.25;;
36189;SDS011;22232;50.914;13.858;2023-07-09T06:19:32;4.03;;;3.20;;
36189;SDS011;22232;50.914;13.858;2023-07-09T06:21:59;5.70;;;3.33;;
36189;SDS011;22232;50.914;13.858;2023-07-09T06:24:27;3.75;;;3.08;;
36189;SDS011;22232;50.914;13.858;2023-07-09T06:26:55;4.25;;;3.47;;
36189;SDS011;22232;50.914;13.858;2023-07-09T06:29:22;4.82;;;2.83;;
36189;SDS011;22232;50.914;13.858;2023-07-09T06:31:50;4.88;;;3.60;;
36189;SDS011;22232;50.914;13.858;2023-07-09T06:34:18;4.38;;;3.80;;
36189;SDS011;22232;50.914;13.858;2023-07-09T06:36:45;4.57;;;3.15;;
36189;SDS011;22232;50.914;13.858;2023-07-09T06:39:13;5.68;;;4.05;;
36189;SDS011;22232;50.914;13.858;2023-07-09T06:41:41;5.10;;;3.90;;
36189;SDS011;22232;50.914;13.858;2023-07-09T06:44:26;5.05;;;3.47;;
36189;SDS011;22232;50.914;13.858;2023-07-09T06:46:54;6.05;;;3.30;;
36189;SDS011;22232;50.914;13.858;2023-07-09T06:49:22;8.10;;;3.53;;
36189;SDS011;22232;50.914;13.858;2023-07-09T06:51:49;5.03;;;3.47;;
36189;SDS011;22232;50.914;13.858;2023-07-09T06:54:17;4.43;;;3.70;;
36189;SDS011;22232;50.914;13.858;2023-07-09T06:56:45;11.95;;;4.25;;
36189;SDS011;22232;50.914;13.858;2023-07-09T06:59:12;4.38;;;3.40;;
36189;SDS011;22232;50.914;13.858;2023-07-09T07:01:40;7.63;;;3.78;;
36189;SDS011;22232;50.914;13.858;2023-07-09T07:04:07;7.45;;;3.70;;
36189;SDS011;22232;50.914;13.858;2023-07-09T07:06:35;7.30;;;3.42;;
36189;SDS011;22232;50.914;13.858;2023-07-09T07:09:03;4.28;;;3.67;;
36189;SDS011;22232;50.914;13.858;2023-07-09T07:11:31;4.88;;;3.90;;
36189;SDS011;22232;50.914;13.858;2023-07-09T07:13:58;6.72;;;3.85;;
36189;SDS011;22232;50.914;13.858;2023-07-09T07:16:26;6.90;;;4.32;;
36189;SDS011;22232;50.914;13.858;2023-07-09T07:18:54;4.45;;;3.50;;
36189;SDS011;22232;50.914;13.858;2023-07-09T07:21:21;6.30;;;3.53;;
36189;SDS011;22232;50.914;13.858;2023-07-09T07:23:49;7.10;;;3.75;;
36189;SDS011;22232;50.914;13.858;2023-07-09T07:26:19;5.43;;;3.47;;
36189;SDS011;22232;50.914;13.858;2023-07-09T07:28:47;4.60;;;3.35;;
36189;SDS011;22232;50.914;13.858;2023-07-09T07:31:15;4.68;;;3.85;;
36189;SDS011;22232;50.914;13.858;2023-07-09T07:33:43;7.18;;;4.07;;
36189;SDS011;22232;50.914;13.858;2023-07-09T07:36:10;5.78;;;4.10;;
36189;SDS011;22232;50.914;13.858;2023-07-09T07:38:55;6.05;;;3.92;;
36189;SDS011;22232;50.914;13.858;2023-07-09T07:41:23;9.35;;;4.22;;
36189;SDS011;22232;50.914;13.858;2023-07-09T07:43:50;5.43;;;4.20;;
36189;SDS011;22232;50.914;13.858;2023-07-09T07:46:18;5.38;;;3.92;;
36189;SDS011;22232;50.914;13.858;2023-07-09T07:48:45;9.55;;;4.07;;
36189;SDS011;22232;50.914;13.858;2023-07-09T07:51:13;6.50;;;4.22;;
36189;SDS011;22232;50.914;13.858;2023-07-09T07:53:41;8.23;;;4.20;;
36189;SDS011;22232;50.914;13.858;2023-07-09T07:56:09;4.32;;;3.90;;
36189;SDS011;22232;50.914;13.858;2023-07-09T07:58:37;5.38;;;4.05;;
36189;SDS011;22232;50.914;13.858;2023-07-09T08:01:05;4.47;;;3.50;;
36189;SDS011;22232;50.914;13.858;2023-07-09T08:03:33;20.77;;;4.50;;
36189;SDS011;22232;50.914;13.858;2023-07-09T08:06:00;6.43;;;4.20;;
36189;SDS011;22232;50.914;13.858;2023-07-09T08:08:29;7.40;;;4.25;;
36189;SDS011;22232;50.914;13.858;2023-07-09T08:11:00;6.60;;;4.10;;
36189;SDS011;22232;50.914;13.858;2023-07-09T08:13:35;4.68;;;4.07;;
36189;SDS011;22232;50.914;13.858;2023-07-09T08:16:05;4.22;;;3.70;;
36189;SDS011;22232;50.914;13.858;2023-07-09T08:18:34;6.40;;;4.43;;
36189;SDS011;22232;50.914;13.858;2023-07-09T08:21:02;5.63;;;4.38;;
36189;SDS011;22232;50.914;13.858;2023-07-09T08:23:30;9.77;;;4.18;;
36189;SDS011;22232;50.914;13.858;2023-07-09T08:26:00;4.68;;;4.18;;
36189;SDS011;22232;50.914;13.858;2023-07-09T08:28:30;5.75;;;4.35;;
36189;SDS011;22232;50.914;13.858;2023-07-09T08:30:59;6.15;;;4.30;;
36189;SDS011;22232;50.914;13.858;2023-07-09T08:33:27;6.18;;;4.20;;
36189;SDS011;22232;50.914;13.858;2023-07-09T08:35:54;7.70;;;4.10;;
36189;SDS011;22232;50.914;13.858;2023-07-09T08:38:22;6.88;;;4.50;;
36189;SDS011;22232;50.914;13.858;2023-07-09T08:41:07;7.38;;;4.25;;
36189;SDS011;22232;50.914;13.858;2023-07-09T08:46:27;4.93;;;4.13;;
36189;SDS011;22232;50.914;13.858;2023-07-09T08:49:02;5.15;;;3.72;;
36189;SDS011;22232;50.914;13.858;2023-07-09T08:51:39;6.45;;;3.75;;
36189;SDS011;22232;50.914;13.858;2023-07-09T08:54:23;4.13;;;3.70;;
36189;SDS011;22232;50.914;13.858;2023-07-09T08:56:56;4.82;;;3.95;;
36189;SDS011;22232;50.914;13.858;2023-07-09T08:59:27;4.20;;;3.70;;
36189;SDS011;22232;50.914;13.858;2023-07-09T09:01:56;5.35;;;4.22;;
36189;SDS011;22232;50.914;13.858;2023-07-09T09:04:28;7.95;;;3.90;;
36189;SDS011;22232;50.914;13.858;2023-07-09T09:07:14;5.07;;;4.18;;
36189;SDS011;22232;50.914;13.858;2023-07-09T09:09:58;6.43;;;4.07;;
36189;SDS011;22232;50.914;13.858;2023-07-09T09:12:44;4.97;;;4.03;;
36189;SDS011;22232;50.914;13.858;2023-07-09T09:15:43;6.55;;;4.15;;
36189;SDS011;22232;50.914;13.858;2023-07-09T09:20:45;5.68;;;4.50;;
36189;SDS011;22232;50.914;13.858;2023-07-09T09:23:18;7.07;;;4.65;;
36189;SDS011;22232;50.914;13.858;2023-07-09T09:25:50;5.95;;;4.22;;
36189;SDS011;22232;50.914;13.858;2023-07-09T09:28:38;6.85;;;4.60;;
36189;SDS011;22232;50.914;13.858;2023-07-09T09:31:07;13.63;;;4.82;;
36189;SDS011;22232;50.914;13.858;2023-07-09T09:33:41;6.13;;;4.03;;
36189;SDS011;22232;50.914;13.858;2023-07-09T09:36:14;5.07;;;4.10;;
36189;SDS011;22232;50.914;13.858;2023-07-09T09:41:15;4.85;;;3.70;;
36189;SDS011;22232;50.914;13.858;2023-07-09T09:43:45;4.25;;;3.85;;
36189;SDS011;22232;50.914;13.858;2023-07-09T09:46:17;5.43;;;4.13;;
36189;SDS011;22232;50.914;13.858;2023-07-09T09:48:53;5.38;;;3.80;;
36189;SDS011;22232;50.914;13.858;2023-07-09T09:51:22;4.40;;;4.00;;
36189;SDS011;22232;50.914;13.858;2023-07-09T09:53:51;7.88;;;4.20;;
36189;SDS011;22232;50.914;13.858;2023-07-09T09:56:26;6.03;;;4.15;;
36189;SDS011;22232;50.914;13.858;2023-07-09T09:58:56;7.55;;;4.63;;
36189;SDS011;22232;50.914;13.858;2023-07-09T10:01:26;23.30;;;5.00;;
36189;SDS011;22232;50.914;13.858;2023-07-09T10:03:59;4.05;;;3.65;;
36189;SDS011;22232;50.914;13.858;2023-07-09T10:11:45;5.07;;;3.90;;
36189;SDS011;22232;50.914;13.858;2023-07-09T10:14:22;7.55;;;4.10;;
36189;SDS011;22232;50.914;13.858;2023-07-09T10:17:10;5.63;;;4.35;;
36189;SDS011;22232;50.914;13.858;2023-07-09T10:39:04;8.25;;;4.20;;
36189;SDS011;22232;50.914;13.858;2023-07-09T10:41:36;6.38;;;4.18;;
36189;SDS011;22232;50.914;13.858;2023-07-09T10:46:38;5.95;;;3.55;;
36189;SDS011;22232;50.914;13.858;2023-07-09T10:49:11;4.68;;;3.70;;
36189;SDS011;22232;50.914;13.858;2023-07-09T10:51:43;4.57;;;3.90;;
36189;SDS011;22232;50.914;13.858;2023-07-09T10:54:32;10.52;;;4.45;;
36189;SDS011;22232;50.914;13.858;2023-07-09T10:57:11;4.63;;;3.95;;
36189;SDS011;22232;50.914;13.858;2023-07-09T10:59:46;5.05;;;4.00;;
36189;SDS011;22232;50.914;13.858;2023-07-09T11:02:26;8.30;;;4.43;;
36189;SDS011;22232;50.914;13.858;2023-07-09T11:05:01;5.22;;;4.03;;
36189;SDS011;22232;50.914;13.858;2023-07-09T11:07:36;4.20;;;3.55;;
36189;SDS011;22232;50.914;13.858;2023-07-09T11:13:35;6.22;;;3.45;;
36189;SDS011;22232;50.914;13.858;2023-07-09T11:15:46;5.75;;;4.00;;
36189;SDS011;22232;50.914;13.858;2023-07-09T11:18:20;8.40;;;3.70;;
36189;SDS011;22232;50.914;13.858;2023-07-09T11:21:04;5.95;;;3.97;;
36189;SDS011;22232;50.914;13.858;2023-07-09T11:23:46;6.07;;;4.28;;
36189;SDS011;22232;50.914;13.858;2023-07-09T11:26:25;4.57;;;3.63;;
36189;SDS011;22232;50.914;13.858;2023-07-09T11:31:35;5.53;;;4.32;;
36189;SDS011;22232;50.914;13.858;2023-07-09T11:36:34;6.28;;;4.03;;
36189;SDS011;22232;50.914;13.858;2023-07-09T11:39:20;5.00;;;3.85;;
36189;SDS011;22232;50.914;13.858;2023-07-09T11:41:49;7.47;;;4.28;;
36189;SDS011;22232;50.914;13.858;2023-07-09T11:48:25;4.00;;;3.60;;
36189;SDS011;22232;50.914;13.858;2023-07-09T11:50:55;4.85;;;4.20;;
36189;SDS011;22232;50.914;13.858;2023-07-09T11:53:46;5.50;;;3.95;;
36189;SDS011;22232;50.914;13.858;2023-07-09T11:56:19;7.60;;;4.35;;
36189;SDS011;22232;50.914;13.858;2023-07-09T11:58:52;5.80;;;4.15;;
36189;SDS011;22232;50.914;13.858;2023-07-09T12:01:24;5.43;;;4.25;;
36189;SDS011;22232;50.914;13.858;2023-07-09T12:06:26;5.35;;;3.40;;
36189;SDS011;22232;50.914;13.858;2023-07-09T12:08:56;5.50;;;3.70;;
36189;SDS011;22232;50.914;13.858;2023-07-09T12:13:53;6.13;;;4.00;;
36189;SDS011;22232;50.914;13.858;2023-07-09T12:16:29;19.77;;;4.13;;
36189;SDS011;22232;50.914;13.858;2023-07-09T12:18:58;5.97;;;3.75;;
36189;SDS011;22232;50.914;13.858;2023-07-09T12:21:26;6.28;;;3.70;;
36189;SDS011;22232;50.914;13.858;2023-07-09T12:23:54;3.35;;;3.05;;
36189;SDS011;22232;50.914;13.858;2023-07-09T12:26:25;5.07;;;3.70;;
36189;SDS011;22232;50.914;13.858;2023-07-09T12:28:53;4.65;;;3.38;;
36189;SDS011;22232;50.914;13.858;2023-07-09T12:31:25;7.10;;;3.83;;
36189;SDS011;22232;50.914;13.858;2023-07-09T12:33:58;5.50;;;3.55;;
36189;SDS011;22232;50.914;13.858;2023-07-09T12:36:26;6.03;;;3.50;;
36189;SDS011;22232;50.914;13.858;2023-07-09T12:39:01;4.60;;;3.90;;
36189;SDS011;22232;50.914;13.858;2023-07-09T12:41:38;5.60;;;3.83;;
36189;SDS011;22232;50.914;13.858;2023-07-09T12:44:26;6.35;;;3.75;;
36189;SDS011;22232;50.914;13.858;2023-07-09T12:46:57;6.60;;;4.22;;
36189;SDS011;22232;50.914;13.858;2023-07-09T12:49:28;4.82;;;3.45;;
36189;SDS011;22232;50.914;13.858;2023-07-09T12:51:58;6.53;;;3.33;;
36189;SDS011;22232;50.914;13.858;2023-07-09T12:54:28;5.28;;;3.40;;
36189;SDS011;22232;50.914;13.858;2023-07-09T12:56:58;5.10;;;3.90;;
36189;SDS011;22232;50.914;13.858;2023-07-09T12:59:48;6.15;;;4.15;;
36189;SDS011;22232;50.914;13.858;2023-07-09T13:02:19;9.20;;;4.05;;
36189;SDS011;22232;50.914;13.858;2023-07-09T13:05:00;8.32;;;4.10;;
36189;SDS011;22232;50.914;13.858;2023-07-09T13:07:34;5.88;;;3.88;;
36189;SDS011;22232;50.914;13.858;2023-07-09T13:10:06;6.85;;;3.90;;
36189;SDS011;22232;50.914;13.858;2023-07-09T13:12:46;4.60;;;3.60;;
36189;SDS011;22232;50.914;13.858;2023-07-09T13:18:09;6.30;;;3.90;;
36189;SDS011;22232;50.914;13.858;2023-07-09T13:20:40;6.45;;;4.18;;
36189;SDS011;22232;50.914;13.858;2023-07-09T13:23:10;5.97;;;3.72;;
36189;SDS011;22232;50.914;13.858;2023-07-09T13:25:40;4.75;;;3.78;;
36189;SDS011;22232;50.914;13.858;2023-07-09T13:30:47;9.20;;;3.95;;
36189;SDS011;22232;50.914;13.858;2023-07-09T13:33:17;5.05;;;3.80;;
36189;SDS011;22232;50.914;13.858;2023-07-09T13:35:45;4.53;;;3.70;;
36189;SDS011;22232;50.914;13.858;2023-07-09T13:38:14;6.50;;;3.90;;
36189;SDS011;22232;50.914;13.858;2023-07-09T13:40:43;5.63;;;3.72;;
36189;SDS011;22232;50.914;13.858;2023-07-09T13:43:17;7.03;;;3.95;;
36189;SDS011;22232;50.914;13.858;2023-07-09T13:45:48;8.25;;;4.57;;
36189;SDS011;22232;50.914;13.858;2023-07-09T13:48:17;9.60;;;4.18;;
36189;SDS011;22232;50.914;13.858;2023-07-09T13:50:47;8.38;;;3.95;;
36189;SDS011;22232;50.914;13.858;2023-07-09T13:53:18;9.30;;;4.72;;
36189;SDS011;22232;50.914;13.858;2023-07-09T13:55:48;6.55;;;4.30;;
36189;SDS011;22232;50.914;13.858;2023-07-09T13:58:24;8.00;;;4.22;;
36189;SDS011;22232;50.914;13.858;2023-07-09T14:00:59;6.50;;;3.80;;
36189;SDS011;22232;50.914;13.858;2023-07-09T14:06:03;8.48;;;4.30;;
36189;SDS011;22232;50.914;13.858;2023-07-09T14:08:31;6.30;;;4.07;;
36189;SDS011;22232;50.914;13.858;2023-07-09T14:10:59;6.47;;;4.18;;
36189;SDS011;22232;50.914;13.858;2023-07-09T14:13:27;7.38;;;4.45;;
36189;SDS011;22232;50.914;13.858;2023-07-09T14:15:56;8.30;;;4.85;;
36189;SDS011;22232;50.914;13.858;2023-07-09T14:18:23;5.82;;;4.28;;
36189;SDS011;22232;50.914;13.858;2023-07-09T14:20:51;5.45;;;4.20;;
36189;SDS011;22232;50.914;13.858;2023-07-09T14:23:20;8.00;;;4.35;;
36189;SDS011;22232;50.914;13.858;2023-07-09T14:25:47;7.32;;;4.53;;
36189;SDS011;22232;50.914;13.858;2023-07-09T14:28:17;5.75;;;4.30;;
36189;SDS011;22232;50.914;13.858;2023-07-09T14:30:46;9.50;;;4.90;;
36189;SDS011;22232;50.914;13.858;2023-07-09T14:33:17;6.95;;;4.38;;
36189;SDS011;22232;50.914;13.858;2023-07-09T14:35:46;6.93;;;4.15;;
36189;SDS011;22232;50.914;13.858;2023-07-09T14:40:51;5.95;;;4.15;;
36189;SDS011;22232;50.914;13.858;2023-07-09T14:43:21;7.18;;;4.35;;
36189;SDS011;22232;50.914;13.858;2023-07-09T14:45:49;7.57;;;4.75;;
36189;SDS011;22232;50.914;13.858;2023-07-09T14:48:18;6.82;;;4.68;;
36189;SDS011;22232;50.914;13.858;2023-07-09T14:50:47;10.38;;;4.30;;
36189;SDS011;22232;50.914;13.858;2023-07-09T14:53:24;9.18;;;5.22;;
36189;SDS011;22232;50.914;13.858;2023-07-09T14:55:54;8.13;;;4.43;;
36189;SDS011;22232;50.914;13.858;2023-07-09T14:58:22;15.35;;;4.88;;
36189;SDS011;22232;50.914;13.858;2023-07-09T15:00:51;8.02;;;4.30;;
36189;SDS011;22232;50.914;13.858;2023-07-09T15:03:22;8.10;;;4.95;;
36189;SDS011;22232;50.914;13.858;2023-07-09T15:05:52;8.60;;;4.63;;
36189;SDS011;22232;50.914;13.858;2023-07-09T15:08:22;8.23;;;5.07;;
36189;SDS011;22232;50.914;13.858;2023-07-09T15:10:52;7.80;;;4.72;;
36189;SDS011;22232;50.914;13.858;2023-07-09T15:13:34;8.68;;;5.13;;
36189;SDS011;22232;50.914;13.858;2023-07-09T15:16:03;6.47;;;5.13;;
36189;SDS011;22232;50.914;13.858;2023-07-09T15:18:32;7.78;;;4.63;;
36189;SDS011;22232;50.914;13.858;2023-07-09T15:21:04;9.63;;;4.57;;
36189;SDS011;22232;50.914;13.858;2023-07-09T15:23:33;5.30;;;4.50;;
36189;SDS011;22232;50.914;13.858;2023-07-09T15:26:15;11.05;;;4.90;;
36189;SDS011;22232;50.914;13.858;2023-07-09T15:28:44;7.32;;;4.93;;
36189;SDS011;22232;50.914;13.858;2023-07-09T15:31:16;7.80;;;4.47;;
36189;SDS011;22232;50.914;13.858;2023-07-09T15:33:44;7.53;;;4.70;;
36189;SDS011;22232;50.914;13.858;2023-07-09T15:36:11;6.85;;;4.82;;
36189;SDS011;22232;50.914;13.858;2023-07-09T15:38:39;6.75;;;4.60;;
36189;SDS011;22232;50.914;13.858;2023-07-09T15:41:12;8.18;;;4.45;;
36189;SDS011;22232;50.914;13.858;2023-07-09T15:43:42;11.40;;;4.80;;
36189;SDS011;22232;50.914;13.858;2023-07-09T15:46:21;8.88;;;4.90;;
36189;SDS011;22232;50.914;13.858;2023-07-09T15:48:50;5.95;;;4.40;;
36189;SDS011;22232;50.914;13.858;2023-07-09T15:51:19;8.38;;;4.55;;
36189;SDS011;22232;50.914;13.858;2023-07-09T15:53:46;6.00;;;4.05;;
36189;SDS011;22232;50.914;13.858;2023-07-09T15:56:30;5.43;;;3.85;;
36189;SDS011;22232;50.914;13.858;2023-07-09T15:59:00;4.80;;;4.20;;
36189;SDS011;22232;50.914;13.858;2023-07-09T16:01:28;6.30;;;4.57;;
36189;SDS011;22232;50.914;13.858;2023-07-09T16:04:00;7.18;;;4.57;;